createdAt,value
2019-03-10T00:02:35.993Z,99931.48
2019-03-10T00:03:42.262Z,99929.32
2019-03-10T00:04:49.160Z,99928.47
2019-03-10T00:05:54.345Z,99939.75
2019-03-10T00:06:59.420Z,99936.70
2019-03-10T00:08:04.356Z,99931.06
2019-03-10T00:09:22.549Z,99939.29
2019-03-10T00:10:27.196Z,99942.34
2019-03-10T00:11:35.002Z,99944.07
2019-03-10T00:12:42.838Z,99934.52
2019-03-10T00:13:50.555Z,99937.98
2019-03-10T00:14:57.759Z,99945.80
2019-03-10T00:16:02.438Z,99949.22
2019-03-10T00:17:09.373Z,99946.16
2019-03-10T00:18:13.823Z,99942.26
2019-03-10T00:19:18.092Z,99944.42
2019-03-10T00:20:25.479Z,99949.63
2019-03-10T00:21:32.757Z,99949.20
2019-03-10T00:22:39.953Z,99952.66
2019-03-10T00:23:46.959Z,99940.50
2019-03-10T00:24:54.210Z,99956.09
2019-03-10T00:25:58.460Z,99949.58
2019-03-10T00:27:02.723Z,99959.98
2019-03-10T00:28:07.781Z,99950.44
2019-03-10T00:29:14.983Z,99949.13
2019-03-10T00:30:19.388Z,99940.45
2019-03-10T00:31:24.106Z,99948.69
2019-03-10T00:32:31.722Z,99949.54
2019-03-10T00:33:35.960Z,99951.70
2019-03-10T00:34:43.279Z,99953.89
2019-03-10T00:35:50.765Z,99955.64
2019-03-10T00:36:55.406Z,99959.97
2019-03-10T00:38:03.984Z,99951.27
2019-03-10T00:39:23.362Z,99947.79
2019-03-10T00:40:53.499Z,99959.52
2019-03-10T00:42:09.585Z,99947.37
2019-03-10T00:43:48.415Z,99959.52
2019-03-10T00:45:08.053Z,99963.86
2019-03-10T00:46:38.348Z,99963.86
2019-03-10T00:48:17.778Z,99959.14
2019-03-10T00:49:39.960Z,99972.53
2019-03-10T00:51:05.067Z,99976.44
2019-03-10T00:52:15.465Z,99979.06
2019-03-10T00:53:24.062Z,99977.75
2019-03-10T00:54:28.304Z,99985.56
2019-03-10T00:55:35.343Z,99977.30
2019-03-10T00:56:39.603Z,99985.16
2019-03-10T00:57:44.048Z,99978.21
2019-03-10T00:58:48.359Z,99973.88
2019-03-10T00:59:52.632Z,99970.87
2019-03-10T01:00:59.806Z,99972.62
2019-03-10T01:02:07.028Z,99980.88
2019-03-10T01:03:11.657Z,99980.45
2019-03-10T01:04:18.906Z,99983.52
2019-03-10T01:05:23.167Z,99981.77
2019-03-10T01:06:30.361Z,99975.24
2019-03-10T01:07:34.636Z,99971.78
2019-03-10T01:08:39.231Z,99966.61
2019-03-10T01:09:43.480Z,99956.63
2019-03-10T01:10:50.526Z,99967.47
2019-03-10T01:11:54.776Z,99961.42
2019-03-10T01:12:59.534Z,99958.41
2019-03-10T01:14:06.512Z,99961.44
2019-03-10T01:15:14.020Z,99967.95
2019-03-10T01:16:18.267Z,99959.28
2019-03-10T01:17:25.207Z,99963.19
2019-03-10T01:18:30.601Z,99963.17
2019-03-10T01:19:35.087Z,99953.20
2019-03-10T01:20:39.322Z,99961.86
2019-03-10T01:21:43.653Z,99955.37
2019-03-10T01:22:48.370Z,99952.34
2019-03-10T01:23:55.488Z,99952.78
2019-03-10T01:24:59.755Z,99948.47
2019-03-10T01:26:03.973Z,99954.09
2019-03-10T01:27:11.170Z,99949.33
2019-03-10T01:28:15.741Z,99946.72
2019-03-10T01:29:23.016Z,99944.56
2019-03-10T01:30:33.205Z,99934.59
2019-03-10T01:31:57.395Z,99927.23
2019-03-10T01:33:22.541Z,99938.50
2019-03-10T01:34:41.797Z,99927.67
2019-03-10T01:35:49.700Z,99927.69
2019-03-10T01:36:54.478Z,99930.74
2019-03-10T01:37:59.129Z,99936.38
2019-03-10T01:39:07.973Z,99931.17
2019-03-10T01:40:12.734Z,99936.34
2019-03-10T01:41:16.986Z,99932.45
2019-03-10T01:42:24.511Z,99914.20
2019-03-10T01:43:31.525Z,99920.28
2019-03-10T01:44:36.208Z,99927.22
2019-03-10T01:45:43.235Z,99927.25
2019-03-10T01:46:47.544Z,99927.67
2019-03-10T01:47:51.800Z,99921.17
2019-03-10T01:48:56.404Z,99928.14
2019-03-10T01:50:00.660Z,99929.44
2019-03-10T01:51:05.008Z,99913.80
2019-03-10T01:52:09.290Z,99909.48
2019-03-10T01:53:25.254Z,99915.11
2019-03-10T01:54:25.530Z,99917.31
2019-03-10T01:55:32.558Z,99907.77
2019-03-10T01:56:36.782Z,99911.20
2019-03-10T01:57:41.418Z,99905.14
2019-03-10T01:58:45.731Z,99903.41
2019-03-10T01:59:50.137Z,99910.34
2019-03-10T02:00:54.412Z,99910.77
2019-03-10T02:02:01.620Z,99906.00
2019-03-10T02:03:08.814Z,99911.66
2019-03-10T02:04:13.108Z,99905.16
2019-03-10T02:05:17.344Z,99906.47
2019-03-10T02:06:21.597Z,99906.48
2019-03-10T02:07:25.904Z,99909.49
2019-03-10T02:08:33.067Z,99899.95
2019-03-10T02:09:39.993Z,99906.03
2019-03-10T02:10:44.237Z,99906.03
2019-03-10T02:11:48.498Z,99908.20
2019-03-10T02:12:52.743Z,99902.58
2019-03-10T02:13:59.757Z,99903.02
2019-03-10T02:15:09.892Z,99902.58
2019-03-10T02:16:14.141Z,99900.83
2019-03-10T02:17:18.558Z,99906.92
2019-03-10T02:18:25.572Z,99910.83
2019-03-10T02:19:30.240Z,99893.04
2019-03-10T02:20:37.553Z,99902.13
2019-03-10T02:21:41.827Z,99889.56
2019-03-10T02:22:49.055Z,99896.50
2019-03-10T02:23:53.334Z,99895.66
2019-03-10T02:24:57.933Z,99891.72
2019-03-10T02:26:02.490Z,99894.34
2019-03-10T02:27:06.744Z,99896.07
2019-03-10T02:28:10.980Z,99899.95
2019-03-10T02:29:15.236Z,99897.80
2019-03-10T02:30:19.522Z,99893.91
2019-03-10T02:31:23.801Z,99887.41
2019-03-10T02:32:30.777Z,99897.80
2019-03-10T02:33:37.938Z,99897.37
2019-03-10T02:34:42.204Z,99893.47
2019-03-10T02:35:49.467Z,99885.64
2019-03-10T02:36:56.674Z,99888.70
2019-03-10T02:38:00.915Z,99893.02
2019-03-10T02:39:08.054Z,99882.65
2019-03-10T02:40:15.092Z,99877.43
2019-03-10T02:41:19.336Z,99884.36
2019-03-10T02:42:23.590Z,99880.05
2019-03-10T02:43:30.613Z,99877.86
2019-03-10T02:44:37.758Z,99874.38
2019-03-10T02:45:44.904Z,99878.71
2019-03-10T02:46:52.178Z,99874.83
2019-03-10T02:47:59.521Z,99879.17
2019-03-10T02:49:03.808Z,99881.31
2019-03-10T02:50:11.401Z,99871.77
2019-03-10T02:51:15.676Z,99880.45
2019-03-10T02:52:22.899Z,99865.72
2019-03-10T02:53:29.960Z,99866.15
2019-03-10T02:54:36.880Z,99867.43
2019-03-10T02:55:41.161Z,99865.26
2019-03-10T02:56:48.470Z,99864.38
2019-03-10T02:57:55.507Z,99862.69
2019-03-10T02:59:02.410Z,99869.61
2019-03-10T03:00:12.153Z,99859.23
2019-03-10T03:01:19.419Z,99847.50
2019-03-10T03:02:23.674Z,99865.26
2019-03-10T03:03:27.906Z,99871.35
2019-03-10T03:04:32.163Z,99867.43
2019-03-10T03:05:36.439Z,99866.13
2019-03-10T03:06:40.820Z,99859.22
2019-03-10T03:07:45.093Z,99860.95
2019-03-10T03:08:50.297Z,99860.05
2019-03-10T03:09:54.929Z,99851.39
2019-03-10T03:10:59.248Z,99857.04
2019-03-10T03:12:03.482Z,99852.71
2019-03-10T03:13:10.396Z,99856.61
2019-03-10T03:14:14.635Z,99864.41
2019-03-10T03:15:22.907Z,99854.88
2019-03-10T03:16:27.286Z,99858.34
2019-03-10T03:17:31.830Z,99853.12
2019-03-10T03:18:36.065Z,99857.47
2019-03-10T03:19:43.284Z,99859.64
2019-03-10T03:20:50.584Z,99858.34
2019-03-10T03:21:54.846Z,99853.17
2019-03-10T03:22:59.123Z,99855.77
2019-03-10T03:24:03.375Z,99855.34
2019-03-10T03:25:11.369Z,99852.30
2019-03-10T03:26:15.607Z,99857.04
2019-03-10T03:27:19.865Z,99849.68
2019-03-10T03:28:24.119Z,99850.11
2019-03-10T03:29:31.558Z,99841.47
2019-03-10T03:30:36.208Z,99845.37
2019-03-10T03:31:40.475Z,99841.87
2019-03-10T03:32:45.149Z,99831.42
2019-03-10T03:33:49.395Z,99840.13
2019-03-10T03:34:53.624Z,99836.67
2019-03-10T03:36:03.746Z,99841.02
2019-03-10T03:37:08.717Z,99839.73
2019-03-10T03:38:19.070Z,99843.21
2019-03-10T03:39:26.673Z,99843.64
2019-03-10T03:40:33.881Z,99836.25
2019-03-10T03:41:40.855Z,99832.78
2019-03-10T03:42:47.888Z,99832.75
2019-03-10T03:43:52.325Z,99834.48
2019-03-10T03:44:56.565Z,99837.12
2019-03-10T03:46:00.855Z,99835.81
2019-03-10T03:47:05.157Z,99838.44
2019-03-10T03:48:09.408Z,99841.87
2019-03-10T03:49:19.516Z,99838.86
2019-03-10T03:50:23.798Z,99841.47
2019-03-10T03:51:30.869Z,99847.08
2019-03-10T03:52:35.127Z,99844.48
2019-03-10T03:53:42.091Z,99840.98
2019-03-10T03:54:49.298Z,99836.67
2019-03-10T03:55:53.609Z,99838.38
2019-03-10T03:56:57.864Z,99840.98
2019-03-10T03:58:02.108Z,99844.02
2019-03-10T03:59:06.362Z,99843.60
2019-03-10T04:00:12.152Z,99842.73
2019-03-10T04:01:27.200Z,99847.08
2019-03-10T04:02:38.540Z,99834.92
2019-03-10T04:03:42.863Z,99833.66
2019-03-10T04:04:47.108Z,99828.89
2019-03-10T04:05:54.324Z,99835.00
2019-03-10T04:06:58.651Z,99826.32
2019-03-10T04:08:03.410Z,99834.11
2019-03-10T04:09:11.523Z,99827.59
2019-03-10T04:10:18.938Z,99839.75
2019-03-10T04:11:26.143Z,99828.88
2019-03-10T04:12:30.445Z,99824.54
2019-03-10T04:13:34.709Z,99814.58
2019-03-10T04:14:41.793Z,99819.33
2019-03-10T04:15:48.973Z,99800.28
2019-03-10T04:16:53.628Z,99813.70
2019-03-10T04:17:57.934Z,99814.58
2019-03-10T04:19:02.178Z,99820.20
2019-03-10T04:20:10.069Z,99820.67
2019-03-10T04:21:14.309Z,99815.89
2019-03-10T04:22:18.873Z,99821.94
2019-03-10T04:23:23.091Z,99819.34
2019-03-10T04:24:27.353Z,99821.08
2019-03-10T04:25:37.490Z,99826.30
2019-03-10T04:26:43.406Z,99820.64
2019-03-10T04:27:50.788Z,99826.71
2019-03-10T04:28:55.067Z,99830.63
2019-03-10T04:30:00.070Z,99824.13
2019-03-10T04:31:04.435Z,99824.54
2019-03-10T04:32:09.807Z,99831.94
2019-03-10T04:33:14.000Z,99827.21
2019-03-10T04:34:18.248Z,99826.77
2019-03-10T04:35:25.163Z,99814.19
2019-03-10T04:36:34.345Z,99819.80
2019-03-10T04:37:39.033Z,99811.16
2019-03-10T04:38:44.380Z,99824.59
2019-03-10T04:39:48.968Z,99815.94
2019-03-10T04:40:53.217Z,99828.08
2019-03-10T04:41:57.485Z,99830.23
2019-03-10T04:43:01.725Z,99833.72
2019-03-10T04:44:08.870Z,99825.52
2019-03-10T04:45:16.092Z,99828.53
2019-03-10T04:46:25.744Z,99828.53
2019-03-10T04:47:32.328Z,99819.42
2019-03-10T04:48:42.300Z,99823.30
2019-03-10T04:49:49.930Z,99823.72
2019-03-10T04:51:00.143Z,99815.94
2019-03-10T04:52:04.537Z,99824.15
2019-03-10T04:53:08.854Z,99815.02
2019-03-10T04:54:13.773Z,99814.59
2019-03-10T04:55:23.530Z,99822.84
2019-03-10T04:56:29.439Z,99821.98
2019-03-10T04:57:36.807Z,99828.06
2019-03-10T04:58:46.308Z,99836.73
2019-03-10T04:59:50.583Z,99829.31
2019-03-10T05:00:58.746Z,99827.16
2019-03-10T05:02:03.032Z,99835.84
2019-03-10T05:03:07.369Z,99831.06
2019-03-10T05:04:11.625Z,99823.66
2019-03-10T05:05:18.374Z,99824.07
2019-03-10T05:06:25.345Z,99826.26
2019-03-10T05:07:34.749Z,99817.99
2019-03-10T05:08:41.897Z,99822.34
2019-03-10T05:09:49.088Z,99824.98
2019-03-10T05:10:54.441Z,99831.48
2019-03-10T05:11:59.010Z,99833.22
2019-03-10T05:13:03.286Z,99831.47
2019-03-10T05:14:07.528Z,99834.48
2019-03-10T05:15:11.849Z,99831.47
2019-03-10T05:16:19.173Z,99836.65
2019-03-10T05:17:23.450Z,99849.68
2019-03-10T05:18:29.325Z,99844.02
2019-03-10T05:19:38.152Z,99853.95
2019-03-10T05:20:46.774Z,99851.73
2019-03-10T05:21:51.369Z,99851.27
2019-03-10T05:23:28.086Z,99840.00
2019-03-10T05:24:32.330Z,99833.91
2019-03-10T05:25:39.561Z,99836.50
2019-03-10T05:26:43.899Z,99832.14
2019-03-10T05:27:48.214Z,99832.58
2019-03-10T05:28:57.163Z,99837.38
2019-03-10T05:30:01.934Z,99841.70
2019-03-10T05:31:06.287Z,99838.25
2019-03-10T05:32:10.703Z,99841.30
2019-03-10T05:33:14.965Z,99836.09
2019-03-10T05:34:22.008Z,99841.30
2019-03-10T05:35:26.758Z,99834.80
2019-03-10T05:36:31.017Z,99842.16
2019-03-10T05:37:35.593Z,99844.33
2019-03-10T05:38:43.302Z,99834.36
2019-03-10T05:39:47.573Z,99841.73
2019-03-10T05:40:51.888Z,99837.84
2019-03-10T05:41:56.165Z,99843.05
2019-03-10T05:43:00.717Z,99837.41
2019-03-10T05:44:06.064Z,99837.44
2019-03-10T05:45:10.294Z,99832.64
2019-03-10T05:46:14.787Z,99830.03
2019-03-10T05:47:19.129Z,99827.84
2019-03-10T05:48:23.411Z,99831.33
2019-03-10T05:49:27.657Z,99836.97
2019-03-10T05:50:34.606Z,99833.05
2019-03-10T05:51:41.680Z,99830.03
2019-03-10T05:52:46.394Z,99826.11
2019-03-10T05:53:53.786Z,99824.38
2019-03-10T05:55:02.257Z,99829.58
2019-03-10T05:56:08.815Z,99822.62
2019-03-10T05:57:16.017Z,99822.61
2019-03-10T05:58:22.524Z,99815.63
2019-03-10T05:59:26.779Z,99806.95
2019-03-10T06:00:41.794Z,99813.45
2019-03-10T06:01:39.862Z,99814.77
2019-03-10T06:02:44.207Z,99816.91
2019-03-10T06:03:51.490Z,99809.52
2019-03-10T06:04:58.622Z,99810.78
2019-03-10T06:06:03.026Z,99803.84
2019-03-10T06:07:10.268Z,99801.65
2019-03-10T06:08:14.544Z,99802.07
2019-03-10T06:09:18.781Z,99796.02
2019-03-10T06:10:26.103Z,99794.28
2019-03-10T06:11:30.433Z,99794.67
2019-03-10T06:12:37.441Z,99792.95
2019-03-10T06:13:41.718Z,99790.36
2019-03-10T06:14:45.978Z,99785.59
2019-03-10T06:15:54.163Z,99788.65
2019-03-10T06:16:58.436Z,99782.57
2019-03-10T06:18:12.749Z,99776.53
2019-03-10T06:19:08.657Z,99783.88
2019-03-10T06:20:15.829Z,99773.90
2019-03-10T06:21:20.095Z,99765.66
2019-03-10T06:22:24.351Z,99765.63
2019-03-10T06:23:29.485Z,99761.73
2019-03-10T06:24:33.750Z,99765.22
2019-03-10T06:25:40.797Z,99763.48
2019-03-10T06:26:45.056Z,99761.70
2019-03-10T06:27:49.314Z,99770.39
2019-03-10T06:28:53.647Z,99775.19
2019-03-10T06:29:57.902Z,99770.78
2019-03-10T06:31:02.663Z,99772.53
2019-03-10T06:32:06.918Z,99771.17
2019-03-10T06:33:11.329Z,99769.00
2019-03-10T06:34:15.630Z,99773.77
2019-03-10T06:35:20.269Z,99773.27
2019-03-10T06:36:24.790Z,99778.45
2019-03-10T06:37:29.031Z,99771.47
2019-03-10T06:38:36.260Z,99770.97
2019-03-10T06:39:43.253Z,99779.20
2019-03-10T06:40:47.513Z,99783.52
2019-03-10T06:41:54.467Z,99781.77
2019-03-10T06:42:58.727Z,99773.46
2019-03-10T06:44:03.019Z,99778.65
2019-03-10T06:45:10.236Z,99779.92
2019-03-10T06:46:14.494Z,99782.53
2019-03-10T06:47:22.319Z,99774.64
2019-03-10T06:48:26.580Z,99776.31
2019-03-10T06:49:33.484Z,99776.29
2019-03-10T06:50:40.755Z,99773.69
2019-03-10T06:51:47.664Z,99775.45
2019-03-10T06:52:51.910Z,99777.16
2019-03-10T06:53:56.186Z,99767.63
2019-03-10T06:55:00.483Z,99765.89
2019-03-10T06:56:04.697Z,99768.84
2019-03-10T06:57:08.945Z,99764.03
2019-03-10T06:58:13.192Z,99768.81
2019-03-10T06:59:20.446Z,99764.88
2019-03-10T07:00:25.054Z,99767.49
2019-03-10T07:01:29.342Z,99770.14
2019-03-10T07:02:33.597Z,99767.02
2019-03-10T07:03:37.878Z,99772.68
2019-03-10T07:04:44.956Z,99765.72
2019-03-10T07:05:49.212Z,99758.72
2019-03-10T07:06:56.381Z,99757.87
2019-03-10T07:08:00.712Z,99753.09
2019-03-10T07:09:05.352Z,99753.06
2019-03-10T07:10:17.089Z,99748.29
2019-03-10T07:11:27.576Z,99756.55
2019-03-10T07:12:32.224Z,99753.48
2019-03-10T07:13:39.761Z,99751.26
2019-03-10T07:14:47.063Z,99754.27
2019-03-10T07:15:54.011Z,99745.94
2019-03-10T07:17:01.306Z,99751.99
2019-03-10T07:18:05.544Z,99748.92
2019-03-10T07:19:09.986Z,99753.21
2019-03-10T07:20:19.251Z,99751.05
2019-03-10T07:21:23.522Z,99748.45
2019-03-10T07:22:27.858Z,99748.41
2019-03-10T07:23:35.181Z,99750.98
2019-03-10T07:24:39.507Z,99747.02
2019-03-10T07:25:48.099Z,99747.42
2019-03-10T07:26:55.188Z,99747.80
2019-03-10T07:28:07.226Z,99743.77
2019-03-10T07:29:13.178Z,99744.55
2019-03-10T07:30:31.681Z,99737.09
2019-03-10T07:31:46.222Z,99741.78
2019-03-10T07:32:52.306Z,99736.09
2019-03-10T07:34:17.619Z,99737.80
2019-03-10T07:35:26.445Z,99740.94
2019-03-10T07:36:38.199Z,99740.91
2019-03-10T07:37:53.020Z,99740.84
2019-03-10T07:39:04.316Z,99742.12
2019-03-10T07:40:24.094Z,99737.43
2019-03-10T07:41:29.961Z,99732.11
2019-03-10T07:42:38.597Z,99739.04
2019-03-10T07:43:47.032Z,99739.84
2019-03-10T07:44:59.316Z,99733.28
2019-03-10T07:46:08.297Z,99734.52
2019-03-10T07:47:17.575Z,99738.20
2019-03-10T07:48:29.990Z,99730.76
2019-03-10T07:49:43.685Z,99731.95
2019-03-10T07:50:49.810Z,99730.55
2019-03-10T07:52:20.162Z,99724.05
2019-03-10T07:53:32.575Z,99728.84
2019-03-10T07:54:41.621Z,99732.75
2019-03-10T07:55:47.510Z,99728.47
2019-03-10T07:56:56.369Z,99718.93
2019-03-10T07:58:11.267Z,99720.23
2019-03-10T07:59:26.260Z,99717.99
2019-03-10T08:00:35.275Z,99722.38
2019-03-10T08:01:47.176Z,99718.46
2019-03-10T08:02:55.698Z,99712.06
2019-03-10T08:04:04.398Z,99717.25
2019-03-10T08:05:26.687Z,99712.10
2019-03-10T08:06:35.382Z,99717.41
2019-03-10T08:07:43.966Z,99712.90
2019-03-10T08:09:00.477Z,99709.45
2019-03-10T08:10:22.465Z,99714.95
2019-03-10T08:11:31.036Z,99710.09
2019-03-10T08:12:45.883Z,99710.02
2019-03-10T08:14:06.776Z,99704.27
2019-03-10T08:15:25.699Z,99700.34
2019-03-10T08:16:34.392Z,99693.60
2019-03-10T08:17:43.123Z,99685.33
2019-03-10T08:19:01.283Z,99683.98
2019-03-10T08:20:10.563Z,99691.38
2019-03-10T08:21:35.142Z,99683.41
2019-03-10T08:22:46.354Z,99685.62
2019-03-10T08:24:11.080Z,99689.29
2019-03-10T08:25:19.726Z,99683.63
2019-03-10T08:26:28.493Z,99684.41
2019-03-10T08:27:37.386Z,99687.67
2019-03-10T08:28:58.560Z,99675.87
2019-03-10T08:30:10.337Z,99681.01
2019-03-10T08:31:32.504Z,99676.96
2019-03-10T08:32:38.759Z,99678.27
2019-03-10T08:33:44.628Z,99674.74
2019-03-10T08:34:53.575Z,99663.63
2019-03-10T08:36:15.476Z,99656.55
2019-03-10T08:37:24.051Z,99662.61
2019-03-10T08:38:48.130Z,99648.59
2019-03-10T08:39:59.999Z,99646.41
2019-03-10T08:41:05.907Z,99646.05
2019-03-10T08:42:20.694Z,99642.17
2019-03-10T08:43:27.193Z,99637.73
2019-03-10T08:44:39.134Z,99638.39
2019-03-10T08:45:57.438Z,99635.52
2019-03-10T08:47:12.567Z,99635.13
2019-03-10T08:48:18.469Z,99632.16
2019-03-10T08:49:33.068Z,99637.78
2019-03-10T08:50:41.992Z,99635.60
2019-03-10T08:51:53.588Z,99626.02
2019-03-10T08:53:02.544Z,99622.84
2019-03-10T08:54:11.295Z,99621.70
2019-03-10T08:55:20.138Z,99617.03
2019-03-10T08:56:31.528Z,99609.77
2019-03-10T08:57:40.174Z,99616.64
2019-03-10T08:58:57.909Z,99613.93
2019-03-10T09:00:03.973Z,99616.17
2019-03-10T09:01:25.884Z,99606.16
2019-03-10T09:02:31.804Z,99613.50
2019-03-10T09:03:55.267Z,99608.71
2019-03-10T09:05:04.222Z,99616.02
2019-03-10T09:06:21.995Z,99619.84
2019-03-10T09:07:53.455Z,99612.40
2019-03-10T09:09:08.284Z,99613.08
2019-03-10T09:10:22.979Z,99602.11
2019-03-10T09:11:29.018Z,99605.86
2019-03-10T09:12:35.888Z,99593.98
2019-03-10T09:13:45.700Z,99601.53
2019-03-10T09:14:51.617Z,99596.64
2019-03-10T09:16:15.579Z,99597.75
2019-03-10T09:17:27.425Z,99600.03
2019-03-10T09:18:49.762Z,99588.64
2019-03-10T09:20:01.927Z,99597.84
2019-03-10T09:21:11.958Z,99595.33
2019-03-10T09:22:38.912Z,99578.53
2019-03-10T09:23:44.890Z,99580.33
2019-03-10T09:24:53.542Z,99591.70
2019-03-10T09:26:08.157Z,99593.64
2019-03-10T09:27:29.275Z,99580.17
2019-03-10T09:28:37.990Z,99580.56
2019-03-10T09:29:53.026Z,99579.66
2019-03-10T09:30:58.923Z,99579.22
2019-03-10T09:32:13.914Z,99576.73
2019-03-10T09:33:19.922Z,99575.19
2019-03-10T09:34:32.153Z,99570.59
2019-03-10T09:35:56.626Z,99570.11
2019-03-10T09:37:22.394Z,99565.17
2019-03-10T09:38:31.732Z,99572.47
2019-03-10T09:41:06.167Z,99558.04
2019-03-10T09:42:19.826Z,99557.06
2019-03-10T09:43:26.422Z,99555.98
2019-03-10T09:44:56.757Z,99551.95
2019-03-10T09:47:55.688Z,99550.34
2019-03-10T09:49:22.892Z,99544.44
2019-03-10T09:50:43.047Z,99543.30
2019-03-10T09:53:17.031Z,99541.66
2019-03-10T09:54:33.210Z,99534.28
2019-03-10T09:55:54.402Z,99538.63
2019-03-10T09:57:09.758Z,99530.47
2019-03-10T09:58:21.952Z,99530.52
2019-03-10T09:59:44.828Z,99529.54
2019-03-10T10:00:51.296Z,99527.03
2019-03-10T10:02:06.635Z,99524.92
2019-03-10T10:03:29.780Z,99528.30
2019-03-10T10:04:54.413Z,99524.70
2019-03-10T10:06:12.688Z,99534.74
2019-03-10T10:07:20.538Z,99532.78
2019-03-10T10:08:45.228Z,99522.36
2019-03-10T10:09:59.245Z,99521.86
2019-03-10T10:11:09.685Z,99521.44
2019-03-10T10:12:17.791Z,99516.95
2019-03-10T10:13:24.284Z,99511.51
2019-03-10T10:14:48.978Z,99507.57
2019-03-10T10:16:01.674Z,99503.63
2019-03-10T10:17:24.655Z,99500.13
2019-03-10T10:18:49.434Z,99501.75
2019-03-10T10:20:05.368Z,99497.69
2019-03-10T10:21:20.339Z,99498.48
2019-03-10T10:22:35.444Z,99492.63
2019-03-10T10:23:44.729Z,99489.52
2019-03-10T10:25:01.890Z,99482.73
2019-03-10T10:26:14.050Z,99484.42
2019-03-10T10:27:24.983Z,99486.23
2019-03-10T10:28:31.502Z,99483.78
2019-03-10T10:29:50.295Z,99488.53
2019-03-10T10:31:14.004Z,99481.00
2019-03-10T10:32:38.184Z,99482.16
2019-03-10T10:33:50.521Z,99476.84
2019-03-10T10:34:59.930Z,99470.55
2019-03-10T10:36:09.881Z,99467.06
2019-03-10T10:37:22.293Z,99461.08
2019-03-10T10:38:40.923Z,99464.30
2019-03-10T10:39:53.952Z,99455.52
2019-03-10T10:41:10.695Z,99452.92
2019-03-10T10:42:31.684Z,99451.05
2019-03-10T10:43:47.846Z,99449.60
2019-03-10T10:45:13.798Z,99458.06
2019-03-10T10:46:23.459Z,99448.52
2019-03-10T10:47:46.259Z,99446.27
2019-03-10T10:49:01.413Z,99444.68
2019-03-10T10:50:17.653Z,99442.68
2019-03-10T10:51:32.513Z,99436.55
2019-03-10T10:52:49.173Z,99433.17
2019-03-10T10:53:56.672Z,99431.67
2019-03-10T10:55:05.149Z,99427.31
2019-03-10T10:56:23.670Z,99427.73
2019-03-10T10:57:36.296Z,99436.33
2019-03-10T10:59:00.821Z,99428.73
2019-03-10T11:00:22.268Z,99438.56
2019-03-10T11:01:31.385Z,99430.50
2019-03-10T11:02:37.975Z,99432.02
2019-03-10T11:04:00.257Z,99433.51
2019-03-10T11:05:24.761Z,99433.62
2019-03-10T11:06:35.966Z,99440.06
2019-03-10T11:07:42.008Z,99431.57
2019-03-10T11:08:50.804Z,99432.61
2019-03-10T11:10:12.879Z,99422.53
2019-03-10T11:11:24.549Z,99421.53
2019-03-10T11:12:36.404Z,99415.58
2019-03-10T11:13:58.285Z,99414.93
2019-03-10T11:15:13.138Z,99413.67
2019-03-10T11:16:27.766Z,99405.26
2019-03-10T11:17:33.675Z,99407.86
2019-03-10T11:18:39.752Z,99405.92
2019-03-10T11:20:01.608Z,99404.99
2019-03-10T11:21:07.978Z,99390.81
2019-03-10T11:22:26.357Z,99374.69
2019-03-10T11:23:36.315Z,99378.09
2019-03-10T11:24:45.297Z,99370.94
2019-03-10T11:25:51.538Z,99361.45
2019-03-10T11:27:06.443Z,99362.58
2019-03-10T11:28:28.620Z,99358.52
2019-03-10T11:29:37.574Z,99357.28
2019-03-10T11:30:46.138Z,99358.05
2019-03-10T11:31:58.385Z,99360.27
2019-03-10T11:33:18.983Z,99363.89
2019-03-10T11:34:27.965Z,99354.23
2019-03-10T11:35:53.397Z,99355.23
2019-03-10T11:36:58.531Z,99348.08
2019-03-10T11:38:22.014Z,99348.40
2019-03-10T11:39:27.898Z,99351.55
2019-03-10T11:40:36.744Z,99351.97
2019-03-10T11:41:48.423Z,99348.84
2019-03-10T11:43:10.205Z,99344.38
2019-03-10T11:44:19.023Z,99339.91
2019-03-10T11:45:39.305Z,99343.70
2019-03-10T11:46:48.527Z,99345.67
2019-03-10T11:48:12.607Z,99345.28
2019-03-10T11:49:24.755Z,99347.90
2019-03-10T11:50:30.640Z,99341.27
2019-03-10T11:51:39.640Z,99341.35
2019-03-10T11:52:48.174Z,99341.74
2019-03-10T11:53:56.912Z,99339.84
2019-03-10T11:55:17.559Z,99337.65
2019-03-10T11:56:26.502Z,99331.18
2019-03-10T11:57:41.473Z,99326.18
2019-03-10T11:58:52.982Z,99324.06
2019-03-10T12:00:01.799Z,99320.72
2019-03-10T12:01:20.884Z,99324.88
2019-03-10T12:02:32.509Z,99314.02
2019-03-10T12:03:41.067Z,99314.02
2019-03-10T12:05:02.954Z,99308.92
2019-03-10T12:06:15.076Z,99304.08
2019-03-10T12:07:20.980Z,99299.11
2019-03-10T12:08:29.790Z,99297.52
2019-03-10T12:09:34.328Z,99290.95
2019-03-10T12:10:38.576Z,99288.35
2019-03-10T12:11:43.172Z,99288.24
2019-03-10T12:12:47.433Z,99284.92
2019-03-10T12:13:51.690Z,99277.06
2019-03-10T12:14:59.243Z,99274.58
2019-03-10T12:16:03.526Z,99283.47
2019-03-10T12:17:10.721Z,99271.30
2019-03-10T12:18:15.018Z,99275.70
2019-03-10T12:19:19.266Z,99267.11
2019-03-10T12:20:23.765Z,99270.57
2019-03-10T12:21:28.035Z,99274.27
2019-03-10T12:22:32.381Z,99267.72
2019-03-10T12:23:36.659Z,99266.47
2019-03-10T12:24:40.917Z,99259.50
2019-03-10T12:25:45.177Z,99270.86
2019-03-10T12:26:49.420Z,99265.36
2019-03-10T12:27:54.066Z,99262.68
2019-03-10T12:29:01.303Z,99262.23
2019-03-10T12:30:16.236Z,99263.94
2019-03-10T12:31:20.517Z,99266.30
2019-03-10T12:32:24.797Z,99266.91
2019-03-10T12:33:29.045Z,99261.23
2019-03-10T12:34:36.232Z,99261.09
2019-03-10T12:35:43.493Z,99258.22
2019-03-10T12:36:47.921Z,99260.67
2019-03-10T12:37:52.398Z,99258.55
2019-03-10T12:38:56.684Z,99259.82
2019-03-10T12:40:03.653Z,99257.14
2019-03-10T12:41:08.240Z,99249.30
2019-03-10T12:42:15.903Z,99248.70
2019-03-10T12:43:20.182Z,99246.97
2019-03-10T12:44:24.613Z,99246.86
2019-03-10T12:45:29.193Z,99250.45
2019-03-10T12:46:36.540Z,99250.45
2019-03-10T12:47:42.086Z,99249.53
2019-03-10T12:48:46.355Z,99234.30
2019-03-10T12:49:50.608Z,99234.50
2019-03-10T12:50:55.023Z,99235.65
2019-03-10T12:51:59.255Z,99227.97
2019-03-10T12:53:03.585Z,99231.08
2019-03-10T12:54:07.851Z,99229.63
2019-03-10T12:55:12.270Z,99219.17
2019-03-10T12:56:16.525Z,99220.62
2019-03-10T12:57:21.085Z,99215.89
2019-03-10T12:58:25.353Z,99208.59
2019-03-10T12:59:29.802Z,99210.66
2019-03-10T13:00:37.000Z,99211.83
2019-03-10T13:01:41.326Z,99207.29
2019-03-10T13:02:45.566Z,99204.38
2019-03-10T13:03:58.383Z,99201.64
2019-03-10T13:04:55.813Z,99201.20
2019-03-10T13:06:00.236Z,99199.59
2019-03-10T13:07:04.488Z,99195.84
2019-03-10T13:08:09.111Z,99197.23
2019-03-10T13:09:13.368Z,99193.55
2019-03-10T13:10:17.616Z,99194.03
2019-03-10T13:11:24.802Z,99191.64
2019-03-10T13:12:29.062Z,99185.63
2019-03-10T13:13:33.322Z,99181.56
2019-03-10T13:14:40.746Z,99183.99
2019-03-10T13:15:45.000Z,99181.81
2019-03-10T13:16:49.252Z,99183.24
2019-03-10T13:17:53.514Z,99182.34
2019-03-10T13:18:57.963Z,99181.97
2019-03-10T13:20:02.237Z,99180.81
2019-03-10T13:21:10.971Z,99175.76
2019-03-10T13:22:15.226Z,99178.41
2019-03-10T13:23:19.487Z,99180.38
2019-03-10T13:24:23.913Z,99184.69
2019-03-10T13:25:28.171Z,99171.17
2019-03-10T13:26:35.437Z,99175.16
2019-03-10T13:27:40.099Z,99170.10
2019-03-10T13:28:44.521Z,99171.73
2019-03-10T13:29:48.788Z,99159.96
2019-03-10T13:30:54.345Z,99161.50
2019-03-10T13:31:58.614Z,99159.19
2019-03-10T13:33:03.827Z,99163.09